sensor_id;sensor_type;location;lat;lon;timestamp;P1;durP1;ratioP1;P2;durP2;ratioP2
73428;SDS011;61643;49.564;17.412;2023-02-03T00:00:09;23.95;;;9.75;;
73428;SDS011;61643;49.564;17.412;2023-02-03T00:02:35;22.38;;;8.52;;
73428;SDS011;61643;49.564;17.412;2023-02-03T00:05:00;21.10;;;7.83;;
73428;SDS011;61643;49.564;17.412;2023-02-03T00:07:25;22.88;;;7.82;;
73428;SDS011;61643;49.564;17.412;2023-02-03T00:09:51;20.40;;;8.25;;
73428;SDS011;61643;49.564;17.412;2023-02-03T00:12:17;20.48;;;8.35;;
73428;SDS011;61643;49.564;17.412;2023-02-03T00:14:42;20.80;;;7.43;;
73428;SDS011;61643;49.564;17.412;2023-02-03T00:17:08;12.13;;;4.37;;
73428;SDS011;61643;49.564;17.412;2023-02-03T00:19:33;6.73;;;2.47;;
73428;SDS011;61643;49.564;17.412;2023-02-03T00:21:58;2.57;;;1.60;;
73428;SDS011;61643;49.564;17.412;2023-02-03T00:24:24;1.55;;;1.23;;
73428;SDS011;61643;49.564;17.412;2023-02-03T00:26:49;4.18;;;1.70;;
73428;SDS011;61643;49.564;17.412;2023-02-03T00:29:14;5.77;;;2.37;;
73428;SDS011;61643;49.564;17.412;2023-02-03T00:31:41;9.10;;;4.65;;
73428;SDS011;61643;49.564;17.412;2023-02-03T00:34:07;7.83;;;3.70;;
73428;SDS011;61643;49.564;17.412;2023-02-03T00:36:32;5.67;;;2.57;;
73428;SDS011;61643;49.564;17.412;2023-02-03T00:38:59;5.47;;;2.70;;
73428;SDS011;61643;49.564;17.412;2023-02-03T00:41:27;3.92;;;1.73;;
73428;SDS011;61643;49.564;17.412;2023-02-03T00:43:55;4.47;;;2.13;;
73428;SDS011;61643;49.564;17.412;2023-02-03T00:46:20;2.97;;;1.83;;
73428;SDS011;61643;49.564;17.412;2023-02-03T00:48:46;3.93;;;1.90;;
73428;SDS011;61643;49.564;17.412;2023-02-03T00:51:11;3.30;;;1.70;;
73428;SDS011;61643;49.564;17.412;2023-02-03T00:53:36;3.97;;;2.13;;
73428;SDS011;61643;49.564;17.412;2023-02-03T00:56:02;4.80;;;2.20;;
73428;SDS011;61643;49.564;17.412;2023-02-03T00:58:27;4.60;;;1.90;;
73428;SDS011;61643;49.564;17.412;2023-02-03T01:00:54;2.97;;;1.67;;
73428;SDS011;61643;49.564;17.412;2023-02-03T01:03:21;3.67;;;1.85;;
73428;SDS011;61643;49.564;17.412;2023-02-03T01:05:46;3.65;;;1.77;;
73428;SDS011;61643;49.564;17.412;2023-02-03T01:08:11;2.63;;;1.60;;
73428;SDS011;61643;49.564;17.412;2023-02-03T01:10:37;3.17;;;1.80;;
73428;SDS011;61643;49.564;17.412;2023-02-03T01:13:02;4.70;;;2.03;;
73428;SDS011;61643;49.564;17.412;2023-02-03T01:15:28;4.57;;;2.03;;
73428;SDS011;61643;49.564;17.412;2023-02-03T01:17:53;6.15;;;2.30;;
73428;SDS011;61643;49.564;17.412;2023-02-03T01:20:19;5.97;;;2.60;;
73428;SDS011;61643;49.564;17.412;2023-02-03T01:22:45;4.55;;;1.95;;
73428;SDS011;61643;49.564;17.412;2023-02-03T01:25:11;2.08;;;1.23;;
73428;SDS011;61643;49.564;17.412;2023-02-03T01:27:36;2.70;;;1.37;;
73428;SDS011;61643;49.564;17.412;2023-02-03T01:30:02;2.60;;;1.53;;
73428;SDS011;61643;49.564;17.412;2023-02-03T01:32:28;5.30;;;2.13;;
73428;SDS011;61643;49.564;17.412;2023-02-03T01:34:53;5.70;;;2.20;;
73428;SDS011;61643;49.564;17.412;2023-02-03T01:37:18;7.73;;;3.43;;
73428;SDS011;61643;49.564;17.412;2023-02-03T01:39:44;8.23;;;2.28;;
73428;SDS011;61643;49.564;17.412;2023-02-03T01:42:13;5.10;;;2.83;;
73428;SDS011;61643;49.564;17.412;2023-02-03T01:44:48;6.82;;;2.95;;
73428;SDS011;61643;49.564;17.412;2023-02-03T01:49:48;7.97;;;2.88;;
73428;SDS011;61643;49.564;17.412;2023-02-03T01:52:20;8.07;;;3.17;;
73428;SDS011;61643;49.564;17.412;2023-02-03T01:54:46;7.20;;;3.55;;
73428;SDS011;61643;49.564;17.412;2023-02-03T01:57:16;8.43;;;3.50;;
73428;SDS011;61643;49.564;17.412;2023-02-03T01:59:46;8.38;;;2.78;;
73428;SDS011;61643;49.564;17.412;2023-02-03T02:02:13;8.70;;;2.70;;
73428;SDS011;61643;49.564;17.412;2023-02-03T02:04:42;6.30;;;2.55;;
73428;SDS011;61643;49.564;17.412;2023-02-03T02:07:16;3.65;;;1.90;;
73428;SDS011;61643;49.564;17.412;2023-02-03T02:09:42;2.22;;;1.10;;
73428;SDS011;61643;49.564;17.412;2023-02-03T02:12:09;2.47;;;1.40;;
73428;SDS011;61643;49.564;17.412;2023-02-03T02:14:36;2.15;;;1.17;;
73428;SDS011;61643;49.564;17.412;2023-02-03T02:17:05;1.75;;;1.10;;
73428;SDS011;61643;49.564;17.412;2023-02-03T02:27:28;2.33;;;1.50;;
73428;SDS011;61643;49.564;17.412;2023-02-03T02:30:21;3.35;;;1.60;;
73428;SDS011;61643;49.564;17.412;2023-02-03T02:35:28;3.33;;;1.60;;
73428;SDS011;61643;49.564;17.412;2023-02-03T02:38:03;4.22;;;1.60;;
73428;SDS011;61643;49.564;17.412;2023-02-03T02:46:22;3.45;;;2.00;;
73428;SDS011;61643;49.564;17.412;2023-02-03T02:51:19;3.08;;;1.90;;
73428;SDS011;61643;49.564;17.412;2023-02-03T02:53:48;4.13;;;1.70;;
73428;SDS011;61643;49.564;17.412;2023-02-03T02:56:19;4.47;;;2.10;;
73428;SDS011;61643;49.564;17.412;2023-02-03T02:58:47;3.33;;;1.50;;
73428;SDS011;61643;49.564;17.412;2023-02-03T03:03:41;4.57;;;1.58;;
73428;SDS011;61643;49.564;17.412;2023-02-03T03:06:13;4.28;;;1.40;;
73428;SDS011;61643;49.564;17.412;2023-02-03T03:11:11;3.25;;;1.65;;
73428;SDS011;61643;49.564;17.412;2023-02-03T03:13:38;3.15;;;1.40;;
73428;SDS011;61643;49.564;17.412;2023-02-03T03:16:09;1.98;;;1.23;;
73428;SDS011;61643;49.564;17.412;2023-02-03T03:18:41;2.92;;;1.63;;
73428;SDS011;61643;49.564;17.412;2023-02-03T03:21:12;3.17;;;1.50;;
73428;SDS011;61643;49.564;17.412;2023-02-03T03:23:40;4.15;;;1.77;;
73428;SDS011;61643;49.564;17.412;2023-02-03T03:26:13;3.97;;;1.90;;
73428;SDS011;61643;49.564;17.412;2023-02-03T03:28:47;3.88;;;1.70;;
73428;SDS011;61643;49.564;17.412;2023-02-03T03:31:16;3.08;;;1.90;;
73428;SDS011;61643;49.564;17.412;2023-02-03T03:33:43;4.05;;;2.03;;
73428;SDS011;61643;49.564;17.412;2023-02-03T03:36:17;3.38;;;1.85;;
73428;SDS011;61643;49.564;17.412;2023-02-03T03:38:51;3.78;;;1.80;;
73428;SDS011;61643;49.564;17.412;2023-02-03T03:44:31;4.60;;;1.90;;
73428;SDS011;61643;49.564;17.412;2023-02-03T03:50:06;3.00;;;1.60;;
73428;SDS011;61643;49.564;17.412;2023-02-03T03:52:35;4.40;;;1.90;;
73428;SDS011;61643;49.564;17.412;2023-02-03T03:55:04;5.60;;;2.10;;
73428;SDS011;61643;49.564;17.412;2023-02-03T03:57:41;3.60;;;1.98;;
73428;SDS011;61643;49.564;17.412;2023-02-03T04:00:10;2.65;;;1.58;;
73428;SDS011;61643;49.564;17.412;2023-02-03T04:02:39;3.60;;;1.90;;
73428;SDS011;61643;49.564;17.412;2023-02-03T04:05:10;7.00;;;2.00;;
73428;SDS011;61643;49.564;17.412;2023-02-03T04:07:38;4.95;;;2.33;;
73428;SDS011;61643;49.564;17.412;2023-02-03T04:10:29;5.45;;;2.67;;
73428;SDS011;61643;49.564;17.412;2023-02-03T04:13:02;4.10;;;1.80;;
73428;SDS011;61643;49.564;17.412;2023-02-03T04:15:28;5.80;;;2.30;;
73428;SDS011;61643;49.564;17.412;2023-02-03T04:17:55;3.03;;;1.60;;
73428;SDS011;61643;49.564;17.412;2023-02-03T04:20:22;3.33;;;1.88;;
73428;SDS011;61643;49.564;17.412;2023-02-03T04:22:49;4.50;;;1.98;;
73428;SDS011;61643;49.564;17.412;2023-02-03T04:25:15;3.08;;;1.80;;
73428;SDS011;61643;49.564;17.412;2023-02-03T04:27:40;3.88;;;1.88;;
73428;SDS011;61643;49.564;17.412;2023-02-03T04:30:06;5.50;;;1.90;;
73428;SDS011;61643;49.564;17.412;2023-02-03T04:32:32;3.10;;;1.90;;
73428;SDS011;61643;49.564;17.412;2023-02-03T04:34:59;4.95;;;1.70;;
73428;SDS011;61643;49.564;17.412;2023-02-03T04:37:25;3.17;;;1.70;;
73428;SDS011;61643;49.564;17.412;2023-02-03T04:39:52;5.18;;;2.30;;
73428;SDS011;61643;49.564;17.412;2023-02-03T04:42:19;3.50;;;1.83;;
73428;SDS011;61643;49.564;17.412;2023-02-03T04:44:45;5.65;;;2.20;;
73428;SDS011;61643;49.564;17.412;2023-02-03T04:47:10;4.83;;;2.20;;
73428;SDS011;61643;49.564;17.412;2023-02-03T04:49:36;4.05;;;1.67;;
73428;SDS011;61643;49.564;17.412;2023-02-03T04:52:01;3.37;;;1.90;;
73428;SDS011;61643;49.564;17.412;2023-02-03T04:54:26;4.23;;;2.23;;
73428;SDS011;61643;49.564;17.412;2023-02-03T04:56:52;3.92;;;1.98;;
73428;SDS011;61643;49.564;17.412;2023-02-03T04:59:17;5.27;;;2.33;;
73428;SDS011;61643;49.564;17.412;2023-02-03T05:01:42;3.43;;;1.83;;
73428;SDS011;61643;49.564;17.412;2023-02-03T05:04:08;5.13;;;2.30;;
73428;SDS011;61643;49.564;17.412;2023-02-03T05:06:33;5.32;;;2.70;;
73428;SDS011;61643;49.564;17.412;2023-02-03T05:08:59;5.80;;;2.50;;
73428;SDS011;61643;49.564;17.412;2023-02-03T05:11:24;4.50;;;2.35;;
73428;SDS011;61643;49.564;17.412;2023-02-03T05:13:50;5.15;;;2.83;;
73428;SDS011;61643;49.564;17.412;2023-02-03T05:16:16;8.20;;;2.88;;
73428;SDS011;61643;49.564;17.412;2023-02-03T05:18:41;4.13;;;2.25;;
73428;SDS011;61643;49.564;17.412;2023-02-03T05:21:07;6.80;;;3.05;;
73428;SDS011;61643;49.564;17.412;2023-02-03T05:23:32;5.85;;;2.88;;
73428;SDS011;61643;49.564;17.412;2023-02-03T05:25:58;5.07;;;2.60;;
73428;SDS011;61643;49.564;17.412;2023-02-03T05:28:23;6.10;;;2.20;;
73428;SDS011;61643;49.564;17.412;2023-02-03T05:30:48;3.92;;;2.40;;
73428;SDS011;61643;49.564;17.412;2023-02-03T05:33:14;5.50;;;2.70;;
73428;SDS011;61643;49.564;17.412;2023-02-03T05:35:39;5.00;;;2.50;;
73428;SDS011;61643;49.564;17.412;2023-02-03T05:38:05;6.60;;;2.42;;
73428;SDS011;61643;49.564;17.412;2023-02-03T05:40:31;5.40;;;2.67;;
73428;SDS011;61643;49.564;17.412;2023-02-03T05:43:15;6.90;;;2.83;;
73428;SDS011;61643;49.564;17.412;2023-02-03T05:45:40;10.88;;;4.13;;
73428;SDS011;61643;49.564;17.412;2023-02-03T05:48:05;10.53;;;4.80;;
73428;SDS011;61643;49.564;17.412;2023-02-03T05:50:31;12.77;;;4.47;;
73428;SDS011;61643;49.564;17.412;2023-02-03T05:53:00;10.75;;;5.25;;
73428;SDS011;61643;49.564;17.412;2023-02-03T05:55:27;12.90;;;5.38;;
73428;SDS011;61643;49.564;17.412;2023-02-03T05:57:53;20.98;;;8.43;;
73428;SDS011;61643;49.564;17.412;2023-02-03T06:00:19;14.15;;;6.25;;
73428;SDS011;61643;49.564;17.412;2023-02-03T06:02:51;20.25;;;8.88;;
73428;SDS011;61643;49.564;17.412;2023-02-03T06:05:18;15.10;;;5.97;;
73428;SDS011;61643;49.564;17.412;2023-02-03T06:07:44;17.02;;;5.65;;
73428;SDS011;61643;49.564;17.412;2023-02-03T06:10:09;10.60;;;4.63;;
73428;SDS011;61643;49.564;17.412;2023-02-03T06:12:36;7.73;;;3.70;;
73428;SDS011;61643;49.564;17.412;2023-02-03T06:15:01;11.35;;;5.65;;
73428;SDS011;61643;49.564;17.412;2023-02-03T06:17:27;16.42;;;5.80;;
73428;SDS011;61643;49.564;17.412;2023-02-03T06:19:52;16.57;;;5.77;;
73428;SDS011;61643;49.564;17.412;2023-02-03T06:22:18;13.07;;;4.80;;
73428;SDS011;61643;49.564;17.412;2023-02-03T06:24:43;9.87;;;4.60;;
73428;SDS011;61643;49.564;17.412;2023-02-03T06:27:10;8.85;;;4.22;;
73428;SDS011;61643;49.564;17.412;2023-02-03T06:29:35;7.85;;;4.30;;
73428;SDS011;61643;49.564;17.412;2023-02-03T06:32:01;9.07;;;4.20;;
73428;SDS011;61643;49.564;17.412;2023-02-03T06:34:26;11.93;;;4.90;;
73428;SDS011;61643;49.564;17.412;2023-02-03T06:36:51;10.63;;;4.25;;
73428;SDS011;61643;49.564;17.412;2023-02-03T06:39:17;11.67;;;4.73;;
73428;SDS011;61643;49.564;17.412;2023-02-03T06:41:42;11.60;;;5.27;;
73428;SDS011;61643;49.564;17.412;2023-02-03T06:44:08;18.50;;;7.07;;
73428;SDS011;61643;49.564;17.412;2023-02-03T06:46:33;21.67;;;8.75;;
73428;SDS011;61643;49.564;17.412;2023-02-03T06:48:58;16.53;;;6.40;;
73428;SDS011;61643;49.564;17.412;2023-02-03T06:51:24;20.85;;;7.03;;
73428;SDS011;61643;49.564;17.412;2023-02-03T06:53:49;22.90;;;7.68;;
73428;SDS011;61643;49.564;17.412;2023-02-03T06:56:15;17.33;;;6.28;;
73428;SDS011;61643;49.564;17.412;2023-02-03T06:58:40;19.83;;;7.13;;
73428;SDS011;61643;49.564;17.412;2023-02-03T07:01:06;19.23;;;7.65;;
73428;SDS011;61643;49.564;17.412;2023-02-03T07:03:31;22.23;;;6.70;;
73428;SDS011;61643;49.564;17.412;2023-02-03T07:05:56;22.37;;;7.63;;
73428;SDS011;61643;49.564;17.412;2023-02-03T07:08:22;15.80;;;6.80;;
73428;SDS011;61643;49.564;17.412;2023-02-03T07:10:51;17.53;;;6.50;;
73428;SDS011;61643;49.564;17.412;2023-02-03T07:13:17;14.60;;;5.80;;
73428;SDS011;61643;49.564;17.412;2023-02-03T07:15:43;14.83;;;6.70;;
73428;SDS011;61643;49.564;17.412;2023-02-03T07:18:08;15.07;;;6.67;;
73428;SDS011;61643;49.564;17.412;2023-02-03T07:20:33;13.63;;;6.20;;
73428;SDS011;61643;49.564;17.412;2023-02-03T07:22:59;13.67;;;6.73;;
73428;SDS011;61643;49.564;17.412;2023-02-03T07:25:24;15.50;;;6.47;;
73428;SDS011;61643;49.564;17.412;2023-02-03T07:27:50;18.10;;;6.60;;
73428;SDS011;61643;49.564;17.412;2023-02-03T07:30:16;16.48;;;6.93;;
73428;SDS011;61643;49.564;17.412;2023-02-03T07:32:45;17.02;;;6.75;;
73428;SDS011;61643;49.564;17.412;2023-02-03T07:35:14;16.35;;;5.95;;
73428;SDS011;61643;49.564;17.412;2023-02-03T07:37:41;14.25;;;5.93;;
73428;SDS011;61643;49.564;17.412;2023-02-03T07:40:07;13.05;;;5.88;;
73428;SDS011;61643;49.564;17.412;2023-02-03T07:42:34;12.40;;;5.38;;
73428;SDS011;61643;49.564;17.412;2023-02-03T07:45:00;13.27;;;5.57;;
73428;SDS011;61643;49.564;17.412;2023-02-03T07:47:25;12.60;;;5.80;;
73428;SDS011;61643;49.564;17.412;2023-02-03T07:49:51;10.50;;;4.82;;
73428;SDS011;61643;49.564;17.412;2023-02-03T07:52:16;12.37;;;5.77;;
73428;SDS011;61643;49.564;17.412;2023-02-03T07:54:41;12.63;;;5.60;;
73428;SDS011;61643;49.564;17.412;2023-02-03T07:57:07;10.60;;;5.47;;
73428;SDS011;61643;49.564;17.412;2023-02-03T07:59:32;10.75;;;5.40;;
73428;SDS011;61643;49.564;17.412;2023-02-03T08:01:58;13.00;;;6.03;;
73428;SDS011;61643;49.564;17.412;2023-02-03T08:04:23;14.98;;;5.55;;
73428;SDS011;61643;49.564;17.412;2023-02-03T08:06:49;12.20;;;5.80;;
73428;SDS011;61643;49.564;17.412;2023-02-03T08:09:14;11.55;;;5.95;;
73428;SDS011;61643;49.564;17.412;2023-02-03T08:11:40;9.05;;;5.68;;
73428;SDS011;61643;49.564;17.412;2023-02-03T08:14:05;12.03;;;6.03;;
73428;SDS011;61643;49.564;17.412;2023-02-03T08:16:30;10.67;;;4.93;;
73428;SDS011;61643;49.564;17.412;2023-02-03T08:18:56;13.97;;;6.60;;
73428;SDS011;61643;49.564;17.412;2023-02-03T08:21:22;14.43;;;6.90;;
73428;SDS011;61643;49.564;17.412;2023-02-03T08:23:47;11.50;;;5.88;;
73428;SDS011;61643;49.564;17.412;2023-02-03T08:26:13;14.37;;;6.40;;
73428;SDS011;61643;49.564;17.412;2023-02-03T08:28:38;13.27;;;6.97;;
73428;SDS011;61643;49.564;17.412;2023-02-03T08:31:10;13.70;;;6.67;;
73428;SDS011;61643;49.564;17.412;2023-02-03T08:33:36;12.73;;;6.22;;
73428;SDS011;61643;49.564;17.412;2023-02-03T08:36:02;10.23;;;5.68;;
73428;SDS011;61643;49.564;17.412;2023-02-03T08:38:29;11.35;;;5.57;;
73428;SDS011;61643;49.564;17.412;2023-02-03T08:40:55;11.00;;;5.85;;
73428;SDS011;61643;49.564;17.412;2023-02-03T08:43:20;13.80;;;6.03;;
73428;SDS011;61643;49.564;17.412;2023-02-03T08:45:46;16.23;;;6.67;;
73428;SDS011;61643;49.564;17.412;2023-02-03T08:48:11;12.53;;;6.23;;
73428;SDS011;61643;49.564;17.412;2023-02-03T08:50:40;12.23;;;5.82;;
73428;SDS011;61643;49.564;17.412;2023-02-03T08:53:06;10.88;;;5.63;;
73428;SDS011;61643;49.564;17.412;2023-02-03T08:55:33;12.88;;;6.57;;
73428;SDS011;61643;49.564;17.412;2023-02-03T08:57:58;12.07;;;6.97;;
73428;SDS011;61643;49.564;17.412;2023-02-03T09:00:24;11.20;;;5.68;;
73428;SDS011;61643;49.564;17.412;2023-02-03T09:02:49;11.80;;;5.70;;
73428;SDS011;61643;49.564;17.412;2023-02-03T09:05:15;13.10;;;6.97;;
73428;SDS011;61643;49.564;17.412;2023-02-03T09:07:43;11.25;;;4.85;;
73428;SDS011;61643;49.564;17.412;2023-02-03T09:10:09;16.73;;;7.43;;
73428;SDS011;61643;49.564;17.412;2023-02-03T09:12:34;15.75;;;6.78;;
73428;SDS011;61643;49.564;17.412;2023-02-03T09:15:00;15.93;;;6.82;;
73428;SDS011;61643;49.564;17.412;2023-02-03T09:17:25;13.80;;;7.10;;
73428;SDS011;61643;49.564;17.412;2023-02-03T09:19:52;13.43;;;6.38;;
73428;SDS011;61643;49.564;17.412;2023-02-03T09:22:17;12.65;;;5.70;;
73428;SDS011;61643;49.564;17.412;2023-02-03T09:24:42;14.30;;;6.50;;
73428;SDS011;61643;49.564;17.412;2023-02-03T09:27:08;12.83;;;5.43;;
73428;SDS011;61643;49.564;17.412;2023-02-03T09:29:33;11.93;;;5.57;;
73428;SDS011;61643;49.564;17.412;2023-02-03T09:31:59;12.77;;;6.27;;
73428;SDS011;61643;49.564;17.412;2023-02-03T09:34:25;12.60;;;5.78;;
73428;SDS011;61643;49.564;17.412;2023-02-03T09:36:50;13.97;;;6.40;;
73428;SDS011;61643;49.564;17.412;2023-02-03T09:39:15;11.90;;;5.97;;
73428;SDS011;61643;49.564;17.412;2023-02-03T09:42:01;13.88;;;6.50;;
73428;SDS011;61643;49.564;17.412;2023-02-03T09:47:22;12.20;;;6.68;;
73428;SDS011;61643;49.564;17.412;2023-02-03T09:49:57;12.38;;;6.30;;
73428;SDS011;61643;49.564;17.412;2023-02-03T09:52:26;14.25;;;6.95;;
73428;SDS011;61643;49.564;17.412;2023-02-03T09:55:00;12.65;;;6.38;;
73428;SDS011;61643;49.564;17.412;2023-02-03T09:57:30;11.00;;;5.50;;
73428;SDS011;61643;49.564;17.412;2023-02-03T10:00:01;12.98;;;6.30;;
73428;SDS011;61643;49.564;17.412;2023-02-03T10:18:40;8.68;;;4.63;;
73428;SDS011;61643;49.564;17.412;2023-02-03T10:21:24;8.40;;;4.50;;
73428;SDS011;61643;49.564;17.412;2023-02-03T10:24:02;7.57;;;4.53;;
73428;SDS011;61643;49.564;17.412;2023-02-03T10:26:33;8.68;;;4.63;;
73428;SDS011;61643;49.564;17.412;2023-02-03T10:29:03;6.53;;;4.07;;
73428;SDS011;61643;49.564;17.412;2023-02-03T10:31:40;6.88;;;4.13;;
73428;SDS011;61643;49.564;17.412;2023-02-03T10:42:14;5.72;;;3.25;;
73428;SDS011;61643;49.564;17.412;2023-02-03T10:44:57;6.95;;;4.03;;
73428;SDS011;61643;49.564;17.412;2023-02-03T10:47:31;7.72;;;3.95;;
73428;SDS011;61643;49.564;17.412;2023-02-03T10:50:00;8.80;;;3.72;;
73428;SDS011;61643;49.564;17.412;2023-02-03T10:52:32;7.65;;;4.15;;
73428;SDS011;61643;49.564;17.412;2023-02-03T10:57:43;8.18;;;4.20;;
73428;SDS011;61643;49.564;17.412;2023-02-03T11:06:03;9.57;;;4.68;;
73428;SDS011;61643;49.564;17.412;2023-02-03T11:08:31;7.75;;;4.00;;
73428;SDS011;61643;49.564;17.412;2023-02-03T11:11:01;8.65;;;4.07;;
73428;SDS011;61643;49.564;17.412;2023-02-03T11:13:29;7.88;;;4.25;;
73428;SDS011;61643;49.564;17.412;2023-02-03T11:15:59;9.13;;;4.35;;
73428;SDS011;61643;49.564;17.412;2023-02-03T11:18:50;7.78;;;4.22;;
73428;SDS011;61643;49.564;17.412;2023-02-03T11:26:21;10.50;;;5.00;;
73428;SDS011;61643;49.564;17.412;2023-02-03T11:28:50;8.50;;;4.68;;
73428;SDS011;61643;49.564;17.412;2023-02-03T11:31:21;8.25;;;4.55;;
73428;SDS011;61643;49.564;17.412;2023-02-03T11:33:50;10.02;;;4.90;;
73428;SDS011;61643;49.564;17.412;2023-02-03T11:36:19;8.05;;;4.60;;
73428;SDS011;61643;49.564;17.412;2023-02-03T11:38:44;7.18;;;3.92;;
73428;SDS011;61643;49.564;17.412;2023-02-03T11:41:19;8.23;;;4.60;;
73428;SDS011;61643;49.564;17.412;2023-02-03T11:43:46;7.35;;;4.97;;
73428;SDS011;61643;49.564;17.412;2023-02-03T11:46:12;5.88;;;3.40;;
73428;SDS011;61643;49.564;17.412;2023-02-03T12:08:09;6.68;;;3.38;;
73428;SDS011;61643;49.564;17.412;2023-02-03T12:11:08;5.80;;;3.00;;
73428;SDS011;61643;49.564;17.412;2023-02-03T12:22:07;3.80;;;2.85;;
73428;SDS011;61643;49.564;17.412;2023-02-03T12:24:41;5.13;;;3.13;;
73428;SDS011;61643;49.564;17.412;2023-02-03T12:30:23;4.78;;;2.97;;
73428;SDS011;61643;49.564;17.412;2023-02-03T12:38:30;5.22;;;2.95;;
73428;SDS011;61643;49.564;17.412;2023-02-03T12:41:05;6.43;;;3.88;;
73428;SDS011;61643;49.564;17.412;2023-02-03T12:43:41;12.07;;;5.28;;
73428;SDS011;61643;49.564;17.412;2023-02-03T12:57:28;5.23;;;3.13;;
73428;SDS011;61643;49.564;17.412;2023-02-03T13:02:32;6.28;;;3.10;;
73428;SDS011;61643;49.564;17.412;2023-02-03T13:05:19;5.80;;;3.03;;
73428;SDS011;61643;49.564;17.412;2023-02-03T13:08:01;4.82;;;3.08;;
73428;SDS011;61643;49.564;17.412;2023-02-03T13:13:20;5.82;;;3.22;;
73428;SDS011;61643;49.564;17.412;2023-02-03T13:15:52;4.60;;;3.05;;
73428;SDS011;61643;49.564;17.412;2023-02-03T13:21:03;6.70;;;2.78;;
73428;SDS011;61643;49.564;17.412;2023-02-03T13:23:29;6.75;;;3.58;;
73428;SDS011;61643;49.564;17.412;2023-02-03T13:42:26;5.03;;;2.92;;
73428;SDS011;61643;49.564;17.412;2023-02-03T13:44:59;5.25;;;2.97;;
73428;SDS011;61643;49.564;17.412;2023-02-03T13:47:33;5.43;;;3.05;;
73428;SDS011;61643;49.564;17.412;2023-02-03T13:50:00;6.68;;;3.35;;
73428;SDS011;61643;49.564;17.412;2023-02-03T13:52:30;5.22;;;2.90;;
73428;SDS011;61643;49.564;17.412;2023-02-03T13:54:59;7.07;;;3.45;;
73428;SDS011;61643;49.564;17.412;2023-02-03T13:57:28;6.82;;;3.05;;
73428;SDS011;61643;49.564;17.412;2023-02-03T13:59:58;6.57;;;2.97;;
73428;SDS011;61643;49.564;17.412;2023-02-03T14:04:52;4.93;;;2.90;;
73428;SDS011;61643;49.564;17.412;2023-02-03T14:12:36;7.20;;;3.67;;
73428;SDS011;61643;49.564;17.412;2023-02-03T14:20:42;8.23;;;4.63;;
73428;SDS011;61643;49.564;17.412;2023-02-03T14:23:24;5.65;;;3.17;;
73428;SDS011;61643;49.564;17.412;2023-02-03T14:25:53;6.85;;;3.33;;
73428;SDS011;61643;49.564;17.412;2023-02-03T14:28:22;9.15;;;4.20;;
73428;SDS011;61643;49.564;17.412;2023-02-03T14:31:06;7.85;;;4.40;;
73428;SDS011;61643;49.564;17.412;2023-02-03T14:33:48;6.63;;;3.90;;
73428;SDS011;61643;49.564;17.412;2023-02-03T14:36:38;5.97;;;4.22;;
73428;SDS011;61643;49.564;17.412;2023-02-03T14:44:38;18.27;;;9.75;;
73428;SDS011;61643;49.564;17.412;2023-02-03T14:52:56;10.10;;;4.65;;
73428;SDS011;61643;49.564;17.412;2023-02-03T14:58:25;10.98;;;4.57;;
73428;SDS011;61643;49.564;17.412;2023-02-03T15:00:54;8.55;;;4.70;;
73428;SDS011;61643;49.564;17.412;2023-02-03T15:03:20;9.63;;;4.90;;
73428;SDS011;61643;49.564;17.412;2023-02-03T15:10:57;22.65;;;9.20;;
73428;SDS011;61643;49.564;17.412;2023-02-03T15:15:50;44.58;;;15.00;;
73428;SDS011;61643;49.564;17.412;2023-02-03T15:18:22;53.33;;;16.10;;
73428;SDS011;61643;49.564;17.412;2023-02-03T15:20:53;39.33;;;14.13;;
73428;SDS011;61643;49.564;17.412;2023-02-03T15:25:56;17.95;;;8.00;;
73428;SDS011;61643;49.564;17.412;2023-02-03T15:28:24;12.65;;;5.68;;
73428;SDS011;61643;49.564;17.412;2023-02-03T15:30:59;12.20;;;6.93;;
73428;SDS011;61643;49.564;17.412;2023-02-03T15:33:29;11.75;;;7.18;;
73428;SDS011;61643;49.564;17.412;2023-02-03T15:35:58;13.18;;;9.15;;
73428;SDS011;61643;49.564;17.412;2023-02-03T15:38:35;9.52;;;6.35;;
73428;SDS011;61643;49.564;17.412;2023-02-03T15:41:05;9.48;;;6.15;;
73428;SDS011;61643;49.564;17.412;2023-02-03T15:43:37;7.47;;;5.03;;
73428;SDS011;61643;49.564;17.412;2023-02-03T15:46:29;6.53;;;3.67;;
73428;SDS011;61643;49.564;17.412;2023-02-03T15:49:12;7.45;;;5.25;;
73428;SDS011;61643;49.564;17.412;2023-02-03T15:51:46;15.70;;;7.97;;
73428;SDS011;61643;49.564;17.412;2023-02-03T15:56:58;15.27;;;6.88;;
73428;SDS011;61643;49.564;17.412;2023-02-03T15:59:33;10.98;;;6.20;;
73428;SDS011;61643;49.564;17.412;2023-02-03T16:02:04;9.02;;;5.20;;
73428;SDS011;61643;49.564;17.412;2023-02-03T16:04:38;9.57;;;5.28;;
73428;SDS011;61643;49.564;17.412;2023-02-03T16:07:04;10.60;;;6.13;;
73428;SDS011;61643;49.564;17.412;2023-02-03T16:09:31;16.58;;;8.07;;
73428;SDS011;61643;49.564;17.412;2023-02-03T16:14:34;9.35;;;4.65;;
73428;SDS011;61643;49.564;17.412;2023-02-03T16:17:00;6.90;;;3.45;;
73428;SDS011;61643;49.564;17.412;2023-02-03T16:19:27;6.10;;;3.83;;
73428;SDS011;61643;49.564;17.412;2023-02-03T16:21:57;8.68;;;5.35;;
73428;SDS011;61643;49.564;17.412;2023-02-03T16:29:49;6.60;;;3.20;;
73428;SDS011;61643;49.564;17.412;2023-02-03T16:32:33;7.15;;;3.45;;
73428;SDS011;61643;49.564;17.412;2023-02-03T16:35:17;7.30;;;5.32;;
73428;SDS011;61643;49.564;17.412;2023-02-03T16:38:05;9.25;;;5.10;;
73428;SDS011;61643;49.564;17.412;2023-02-03T16:40:50;17.05;;;8.25;;
73428;SDS011;61643;49.564;17.412;2023-02-03T16:43:34;15.00;;;6.50;;
73428;SDS011;61643;49.564;17.412;2023-02-03T16:46:18;15.60;;;7.93;;
73428;SDS011;61643;49.564;17.412;2023-02-03T16:49:02;9.27;;;4.63;;
73428;SDS011;61643;49.564;17.412;2023-02-03T16:51:46;10.45;;;6.45;;
73428;SDS011;61643;49.564;17.412;2023-02-03T16:54:12;9.57;;;4.03;;
73428;SDS011;61643;49.564;17.412;2023-02-03T16:56:38;12.77;;;6.25;;
73428;SDS011;61643;49.564;17.412;2023-02-03T16:59:04;30.90;;;12.07;;
73428;SDS011;61643;49.564;17.412;2023-02-03T17:01:29;22.60;;;11.00;;
73428;SDS011;61643;49.564;17.412;2023-02-03T17:03:54;14.53;;;7.97;;
73428;SDS011;61643;49.564;17.412;2023-02-03T17:06:20;109.33;;;43.90;;
73428;SDS011;61643;49.564;17.412;2023-02-03T17:08:45;35.47;;;17.52;;
73428;SDS011;61643;49.564;17.412;2023-02-03T17:11:17;10.90;;;6.30;;
73428;SDS011;61643;49.564;17.412;2023-02-03T17:13:44;9.50;;;5.25;;
73428;SDS011;61643;49.564;17.412;2023-02-03T17:16:14;9.88;;;5.78;;
73428;SDS011;61643;49.564;17.412;2023-02-03T17:18:42;13.43;;;6.60;;
73428;SDS011;61643;49.564;17.412;2023-02-03T17:21:10;11.73;;;6.25;;
73428;SDS011;61643;49.564;17.412;2023-02-03T17:23:38;12.20;;;6.28;;
73428;SDS011;61643;49.564;17.412;2023-02-03T17:26:04;13.73;;;7.38;;
73428;SDS011;61643;49.564;17.412;2023-02-03T17:28:30;29.58;;;14.27;;
73428;SDS011;61643;49.564;17.412;2023-02-03T17:30:56;19.10;;;10.43;;
73428;SDS011;61643;49.564;17.412;2023-02-03T17:33:26;16.15;;;10.30;;
73428;SDS011;61643;49.564;17.412;2023-02-03T17:38:39;8.63;;;4.43;;
73428;SDS011;61643;49.564;17.412;2023-02-03T17:41:16;21.40;;;12.18;;
73428;SDS011;61643;49.564;17.412;2023-02-03T17:43:43;12.70;;;5.95;;
73428;SDS011;61643;49.564;17.412;2023-02-03T17:46:10;9.10;;;4.45;;
73428;SDS011;61643;49.564;17.412;2023-02-03T17:48:37;9.18;;;4.72;;
73428;SDS011;61643;49.564;17.412;2023-02-03T17:51:09;20.02;;;7.60;;
73428;SDS011;61643;49.564;17.412;2023-02-03T17:53:34;37.30;;;14.88;;